createdAt,value
2022-09-28T00:01:33.204Z,2.45
2022-09-28T00:03:59.809Z,2.60
2022-09-28T00:06:29.015Z,2.20
2022-09-28T00:08:56.194Z,2.53
2022-09-28T00:11:25.295Z,2.75
2022-09-28T00:13:53.419Z,2.92
2022-09-28T00:16:22.122Z,2.42
2022-09-28T00:18:50.963Z,3.20
2022-09-28T00:21:19.670Z,3.03
2022-09-28T00:24:04.747Z,3.25
2022-09-28T00:26:33.384Z,3.63
2022-09-28T00:29:01.714Z,3.30
2022-09-28T00:31:31.668Z,3.42
2022-09-28T00:34:00.093Z,3.90
2022-09-28T00:36:31.006Z,3.78
2022-09-28T00:38:58.402Z,3.90
2022-09-28T00:41:26.581Z,4.03
2022-09-28T00:43:53.956Z,3.92
2022-09-28T00:46:33.713Z,3.88
2022-09-28T00:49:08.666Z,3.95
2022-09-28T00:51:36.754Z,4.40
2022-09-28T00:54:05.705Z,4.80
2022-09-28T00:56:34.016Z,4.82
2022-09-28T00:59:01.674Z,4.65
2022-09-28T01:01:28.282Z,5.00
2022-09-28T01:03:54.659Z,5.20
2022-09-28T01:06:23.569Z,5.60
2022-09-28T01:08:51.885Z,5.45
2022-09-28T01:11:19.062Z,4.88
2022-09-28T01:13:46.850Z,4.78
2022-09-28T01:16:21.838Z,5.05
2022-09-28T01:19:18.047Z,5.45
2022-09-28T01:22:12.134Z,5.10
2022-09-28T01:25:18.407Z,5.13
2022-09-28T01:27:47.722Z,4.57
2022-09-28T01:30:16.918Z,4.93
2022-09-28T01:32:48.960Z,4.63
2022-09-28T01:35:19.742Z,4.70
2022-09-28T01:38:00.511Z,5.55
2022-09-28T01:40:27.601Z,5.28
2022-09-28T01:42:58.923Z,5.18
2022-09-28T01:45:34.059Z,5.32
2022-09-28T01:48:03.670Z,5.30
2022-09-28T01:50:35.186Z,6.05
2022-09-28T01:53:09.598Z,6.10
2022-09-28T01:55:45.016Z,6.00
2022-09-28T01:58:32.709Z,6.40
2022-09-28T02:01:09.803Z,4.30
2022-09-28T02:03:42.163Z,3.83
2022-09-28T02:06:26.386Z,2.70
2022-09-28T02:08:55.993Z,2.42
2022-09-28T02:11:22.768Z,2.40
2022-09-28T02:13:59.730Z,2.60
2022-09-28T02:16:33.451Z,2.35
2022-09-28T02:19:00.319Z,1.60
2022-09-28T02:21:32.103Z,1.80
2022-09-28T02:24:04.082Z,1.40
2022-09-28T02:26:34.191Z,1.33
2022-09-28T02:29:00.531Z,1.20
2022-09-28T02:31:27.610Z,0.80
2022-09-28T02:33:55.103Z,0.80
2022-09-28T02:36:21.861Z,0.60
2022-09-28T02:38:48.234Z,0.77
2022-09-28T02:41:24.205Z,0.70
2022-09-28T02:44:20.152Z,0.75
2022-09-28T02:46:55.636Z,0.60
2022-09-28T02:49:32.010Z,0.52
2022-09-28T02:52:13.615Z,0.50
2022-09-28T02:54:58.465Z,0.60
2022-09-28T02:57:37.353Z,0.70
2022-09-28T03:00:17.527Z,0.70
2022-09-28T03:02:59.202Z,0.68
2022-09-28T03:05:44.046Z,0.60
2022-09-28T03:08:24.688Z,0.60
2022-09-28T03:10:57.103Z,0.60
2022-09-28T03:13:25.168Z,0.65
2022-09-28T03:15:51.486Z,0.80
2022-09-28T03:18:17.797Z,0.65
2022-09-28T03:20:44.404Z,0.80
2022-09-28T03:23:26.124Z,0.57
2022-09-28T03:25:52.540Z,0.47
2022-09-28T03:28:19.382Z,0.70
2022-09-28T03:30:45.690Z,0.73
2022-09-28T03:33:12.013Z,0.70
2022-09-28T03:35:38.364Z,0.50
2022-09-28T03:38:04.744Z,0.82
2022-09-28T03:40:31.116Z,0.80
2022-09-28T03:42:57.492Z,0.70
2022-09-28T03:45:23.807Z,1.20
2022-09-28T03:47:50.114Z,1.15
2022-09-28T03:50:16.506Z,0.85
2022-09-28T03:52:42.913Z,1.00
2022-09-28T03:55:09.558Z,0.70
2022-09-28T03:57:35.923Z,1.00
2022-09-28T04:00:04.152Z,1.00
2022-09-28T04:02:30.562Z,1.00
2022-09-28T04:04:56.976Z,0.85
2022-09-28T04:07:24.572Z,0.60
2022-09-28T04:09:52.357Z,0.82
2022-09-28T04:12:18.692Z,0.75
2022-09-28T04:14:45.202Z,0.82
2022-09-28T04:17:11.504Z,0.80
2022-09-28T04:19:37.837Z,0.90
2022-09-28T04:22:04.770Z,0.80
2022-09-28T04:24:31.510Z,1.00
2022-09-28T04:27:17.810Z,0.98
2022-09-28T04:29:44.150Z,0.98
2022-09-28T04:32:11.531Z,0.93
2022-09-28T04:34:41.836Z,2.88
2022-09-28T04:37:10.170Z,5.60
2022-09-28T04:39:36.502Z,5.20
2022-09-28T04:42:02.864Z,3.40
2022-09-28T04:44:29.213Z,1.23
2022-09-28T04:46:56.171Z,1.10
2022-09-28T04:49:24.332Z,1.00
2022-09-28T04:51:50.655Z,4.05
2022-09-28T04:54:17.023Z,8.35
2022-09-28T04:56:43.356Z,3.42
2022-09-28T04:59:10.003Z,2.33
2022-09-28T05:01:37.062Z,1.58
2022-09-28T05:04:03.502Z,1.50
2022-09-28T05:06:30.617Z,1.40
2022-09-28T05:08:57.540Z,2.05
2022-09-28T05:11:24.062Z,1.48
2022-09-28T05:13:50.590Z,1.33
2022-09-28T05:16:17.375Z,1.90
2022-09-28T05:18:43.725Z,2.00
2022-09-28T05:21:14.619Z,1.70
2022-09-28T05:23:45.921Z,1.52
2022-09-28T05:26:12.288Z,1.50
2022-09-28T05:28:38.591Z,1.80
2022-09-28T05:31:05.239Z,1.60
2022-09-28T05:33:32.358Z,1.80
2022-09-28T05:36:01.471Z,2.15
2022-09-28T05:38:29.019Z,2.55
2022-09-28T05:40:55.611Z,2.20
2022-09-28T05:43:22.491Z,2.08
2022-09-28T05:45:54.274Z,2.30
2022-09-28T05:48:21.659Z,1.55
2022-09-28T05:50:52.190Z,2.05
2022-09-28T05:53:18.525Z,1.90
2022-09-28T05:55:44.842Z,1.88
2022-09-28T05:58:11.182Z,1.60
2022-09-28T06:00:37.628Z,1.45
2022-09-28T06:03:08.976Z,1.70
2022-09-28T06:05:36.422Z,1.30
2022-09-28T06:08:05.039Z,1.30
2022-09-28T06:10:31.928Z,1.10
2022-09-28T06:12:58.694Z,0.90
2022-09-28T06:15:27.005Z,1.05
2022-09-28T06:17:57.747Z,1.10
2022-09-28T06:20:26.237Z,1.35
2022-09-28T06:22:53.638Z,1.33
2022-09-28T06:25:21.509Z,1.00
2022-09-28T06:27:57.964Z,1.00
2022-09-28T06:30:27.121Z,1.80
2022-09-28T06:32:58.030Z,1.33
2022-09-28T06:35:25.972Z,1.33
2022-09-28T06:37:53.107Z,1.73
2022-09-28T06:40:20.163Z,1.23
2022-09-28T06:43:16.002Z,1.70
2022-09-28T06:45:42.858Z,1.60
2022-09-28T06:48:10.302Z,1.73
2022-09-28T06:50:39.104Z,1.52
2022-09-28T06:53:07.132Z,1.67
2022-09-28T06:55:33.670Z,1.20
2022-09-28T06:58:02.070Z,1.40
2022-09-28T07:00:29.459Z,1.30
2022-09-28T07:02:55.777Z,1.20
2022-09-28T07:05:27.059Z,1.40
2022-09-28T07:07:55.147Z,1.40
2022-09-28T07:10:23.284Z,1.60
2022-09-28T07:12:50.924Z,1.30
2022-09-28T07:15:17.836Z,1.65
2022-09-28T07:17:58.268Z,1.20
2022-09-28T07:20:27.586Z,0.90
2022-09-28T07:22:55.151Z,1.20
2022-09-28T07:25:22.934Z,1.10
2022-09-28T07:27:49.434Z,1.15
2022-09-28T07:30:16.085Z,1.05
2022-09-28T07:32:42.807Z,1.20
2022-09-28T07:35:09.578Z,1.35
2022-09-28T07:37:36.390Z,1.50
2022-09-28T07:40:25.765Z,1.35
2022-09-28T07:42:52.326Z,1.15
2022-09-28T07:45:24.303Z,1.30
2022-09-28T07:47:55.107Z,1.20
2022-09-28T07:50:21.919Z,0.90
2022-09-28T07:52:49.169Z,1.20
2022-09-28T07:55:15.740Z,1.17
2022-09-28T07:57:42.118Z,1.13
2022-09-28T08:00:09.008Z,1.17
2022-09-28T08:02:37.264Z,1.33
2022-09-28T08:05:04.294Z,0.98
2022-09-28T08:07:31.710Z,1.10
2022-09-28T08:09:58.108Z,0.90
2022-09-28T08:12:24.434Z,1.00
2022-09-28T08:14:52.779Z,0.93
2022-09-28T08:17:19.326Z,0.90
2022-09-28T08:20:03.936Z,1.17
2022-09-28T08:22:32.088Z,1.20
2022-09-28T08:24:58.451Z,1.10
2022-09-28T08:27:24.794Z,1.27
2022-09-28T08:29:51.334Z,1.25
2022-09-28T08:32:18.223Z,1.00
2022-09-28T08:34:44.604Z,0.98
2022-09-28T08:37:10.965Z,1.05
2022-09-28T08:39:37.310Z,1.10
2022-09-28T08:42:30.475Z,1.10
2022-09-28T08:44:59.382Z,0.80
2022-09-28T08:47:47.750Z,0.98
2022-09-28T08:50:18.241Z,1.00
2022-09-28T08:52:48.469Z,0.80
2022-09-28T08:55:23.897Z,0.82
2022-09-28T08:57:58.428Z,0.70
2022-09-28T09:00:40.018Z,1.05
2022-09-28T09:03:10.730Z,1.10
2022-09-28T09:05:51.963Z,0.82
2022-09-28T09:08:27.490Z,0.90
2022-09-28T09:11:09.427Z,1.00
2022-09-28T09:13:55.853Z,0.63
2022-09-28T09:16:44.150Z,0.90
2022-09-28T09:19:16.553Z,0.95
2022-09-28T09:22:01.075Z,0.80
2022-09-28T09:27:05.657Z,0.77
2022-09-28T09:30:11.353Z,0.80
2022-09-28T09:33:04.657Z,1.02
2022-09-28T09:35:58.615Z,0.90
2022-09-28T09:38:49.959Z,0.70
2022-09-28T09:41:47.064Z,0.82
2022-09-28T09:44:40.665Z,0.93
2022-09-28T09:47:08.016Z,0.75
2022-09-28T09:49:42.504Z,0.80
2022-09-28T09:52:25.978Z,1.33
2022-09-28T09:55:10.683Z,1.15
2022-09-28T09:57:46.611Z,0.80
2022-09-28T10:00:14.549Z,1.10
2022-09-28T10:02:42.357Z,1.08
2022-09-28T10:05:11.458Z,0.77
2022-09-28T10:08:01.021Z,0.88
2022-09-28T10:10:33.662Z,0.82
2022-09-28T10:12:59.983Z,0.95
2022-09-28T10:15:32.492Z,0.90
2022-09-28T10:18:02.726Z,0.68
2022-09-28T10:20:33.109Z,0.95
2022-09-28T10:23:02.158Z,1.05
2022-09-28T10:25:31.602Z,0.70
2022-09-28T10:27:59.783Z,1.15
2022-09-28T10:30:26.106Z,0.70
2022-09-28T10:32:55.064Z,0.65
2022-09-28T10:35:26.940Z,1.00
2022-09-28T10:38:06.309Z,0.80
2022-09-28T10:40:51.479Z,0.90
2022-09-28T10:43:39.014Z,0.70
2022-09-28T10:46:06.524Z,0.82
2022-09-28T10:48:52.733Z,1.23
2022-09-28T10:51:19.102Z,0.73
2022-09-28T10:54:00.467Z,0.70
2022-09-28T10:56:36.389Z,0.85
2022-09-28T10:59:22.284Z,0.70
2022-09-28T11:01:53.994Z,0.60
2022-09-28T11:04:23.291Z,0.60
2022-09-28T11:06:50.045Z,0.52
2022-09-28T11:09:31.336Z,0.70
2022-09-28T11:12:03.590Z,1.10
2022-09-28T11:14:41.901Z,1.00
2022-09-28T11:17:40.266Z,0.60
2022-09-28T11:20:29.594Z,0.80
2022-09-28T11:22:57.946Z,0.93
2022-09-28T11:25:27.385Z,0.80
2022-09-28T11:27:53.943Z,0.90
2022-09-28T11:30:31.323Z,0.85
2022-09-28T11:33:05.462Z,0.88
2022-09-28T11:35:51.965Z,0.85
2022-09-28T11:39:09.250Z,0.50
2022-09-28T11:42:00.266Z,0.80
2022-09-28T11:44:33.297Z,0.63
2022-09-28T11:47:08.942Z,0.87
2022-09-28T11:49:57.391Z,0.88
2022-09-28T11:52:55.877Z,0.90
2022-09-28T11:55:24.433Z,0.90
2022-09-28T11:57:56.981Z,1.00
2022-09-28T12:00:23.764Z,0.70
2022-09-28T12:03:00.763Z,0.80
2022-09-28T12:05:36.798Z,0.80
2022-09-28T12:08:13.444Z,0.80
2022-09-28T12:10:51.684Z,1.00
2022-09-28T12:13:22.566Z,2.08
2022-09-28T12:18:50.319Z,0.90
2022-09-28T12:21:25.848Z,0.90
2022-09-28T12:23:56.223Z,0.85
2022-09-28T12:26:37.191Z,0.90
2022-09-28T12:29:13.101Z,0.60
2022-09-28T12:32:03.698Z,0.63
2022-09-28T12:34:30.051Z,0.57
2022-09-28T12:37:20.181Z,0.65
2022-09-28T12:40:00.656Z,0.70
2022-09-28T12:42:44.228Z,0.80
2022-09-28T12:45:53.081Z,0.88
2022-09-28T12:48:39.816Z,0.70
2022-09-28T12:51:17.239Z,0.82
2022-09-28T12:54:21.098Z,0.88
2022-09-28T12:57:06.305Z,0.90
2022-09-28T12:59:38.480Z,0.80
2022-09-28T13:02:32.354Z,0.90
2022-09-28T13:05:21.096Z,0.90
2022-09-28T13:08:02.696Z,0.90
2022-09-28T13:10:33.123Z,0.90
2022-09-28T13:13:18.498Z,0.57
2022-09-28T13:16:03.874Z,0.80
2022-09-28T13:18:40.957Z,0.75
2022-09-28T13:21:19.927Z,0.90
2022-09-28T13:23:47.265Z,0.90
2022-09-28T13:26:28.766Z,0.80
2022-09-28T13:28:58.895Z,0.60
2022-09-28T13:31:33.037Z,0.70
2022-09-28T13:34:03.256Z,0.70
2022-09-28T13:36:30.365Z,0.70
2022-09-28T13:38:59.283Z,0.82
2022-09-28T13:41:29.828Z,0.70
2022-09-28T13:44:36.668Z,0.82
2022-09-28T13:47:13.179Z,0.90
2022-09-28T13:50:00.449Z,0.70
2022-09-28T13:52:29.736Z,0.70
2022-09-28T13:55:23.240Z,0.73
2022-09-28T13:58:17.467Z,0.82
2022-09-28T14:00:55.129Z,0.80
2022-09-28T14:03:43.018Z,0.80
2022-09-28T14:06:22.667Z,0.85
2022-09-28T14:09:12.763Z,0.70
2022-09-28T14:11:54.883Z,1.05
2022-09-28T14:14:46.432Z,1.08
2022-09-28T14:17:21.560Z,0.90
2022-09-28T14:19:54.264Z,0.70
2022-09-28T14:22:27.233Z,1.08
2022-09-28T14:24:59.329Z,1.00
2022-09-28T14:27:52.086Z,0.95
2022-09-28T14:30:21.518Z,0.88
2022-09-28T14:32:56.964Z,0.77
2022-09-28T14:35:26.155Z,0.88
2022-09-28T14:38:15.384Z,0.98
2022-09-28T14:41:09.347Z,0.95
2022-09-28T14:43:44.537Z,0.90
2022-09-28T14:46:11.134Z,0.70
2022-09-28T14:49:01.553Z,0.75
2022-09-28T14:51:29.972Z,0.93
2022-09-28T14:54:09.126Z,0.80
2022-09-28T14:56:46.798Z,0.90
2022-09-28T14:59:18.433Z,0.80
2022-09-28T15:01:50.073Z,0.90
2022-09-28T15:04:17.149Z,0.60
2022-09-28T15:06:46.077Z,0.80
2022-09-28T15:09:32.930Z,0.85
2022-09-28T15:12:16.778Z,0.88
2022-09-28T15:14:46.413Z,0.90
2022-09-28T15:17:14.279Z,1.20
2022-09-28T15:20:10.904Z,0.95
2022-09-28T15:22:37.693Z,0.80
2022-09-28T15:25:13.260Z,1.20
2022-09-28T15:27:41.139Z,1.00
2022-09-28T15:30:29.337Z,0.88
2022-09-28T15:33:16.713Z,0.90
2022-09-28T15:35:46.919Z,0.95
2022-09-28T15:38:17.089Z,0.80
2022-09-28T15:40:44.430Z,0.82
2022-09-28T15:43:24.006Z,0.90
2022-09-28T15:46:05.206Z,0.80
2022-09-28T15:48:41.753Z,0.88
2022-09-28T15:51:12.764Z,0.77
2022-09-28T15:53:45.991Z,0.82
2022-09-28T15:56:12.425Z,0.85
2022-09-28T15:58:39.473Z,0.80
2022-09-28T16:01:36.265Z,1.02
2022-09-28T16:04:36.745Z,0.90
2022-09-28T16:07:09.232Z,0.80
2022-09-28T16:09:56.632Z,0.70
2022-09-28T16:12:24.142Z,0.90
2022-09-28T16:14:54.459Z,1.27
2022-09-28T16:17:32.254Z,1.00
2022-09-28T16:20:01.581Z,1.20
2022-09-28T16:22:28.907Z,0.88
2022-09-28T16:24:57.066Z,0.98
2022-09-28T16:27:26.903Z,1.30
2022-09-28T16:30:24.097Z,1.13
2022-09-28T16:32:54.241Z,1.00
2022-09-28T16:35:25.469Z,1.95
2022-09-28T16:38:00.603Z,3.65
2022-09-28T16:40:27.650Z,3.50
2022-09-28T16:42:57.333Z,3.67
2022-09-28T16:45:23.774Z,1.75
2022-09-28T16:47:53.443Z,1.80
2022-09-28T16:50:21.187Z,1.35
2022-09-28T16:53:09.406Z,1.27
2022-09-28T16:55:40.623Z,1.50
2022-09-28T16:58:08.037Z,1.33
2022-09-28T17:00:34.391Z,1.90
2022-09-28T17:03:00.724Z,1.50
2022-09-28T17:05:27.057Z,1.30
2022-09-28T17:08:00.690Z,1.63
2022-09-28T17:11:16.911Z,1.80
2022-09-28T17:13:44.999Z,2.03
2022-09-28T17:16:15.203Z,1.80
2022-09-28T17:18:41.718Z,1.95
2022-09-28T17:21:20.669Z,1.73
2022-09-28T17:23:48.602Z,6.20
2022-09-28T17:26:31.345Z,2.33
2022-09-28T17:29:01.721Z,1.38
2022-09-28T17:31:31.239Z,1.42
2022-09-28T17:33:58.105Z,7.25
2022-09-28T17:36:25.812Z,6.65
2022-09-28T17:38:52.608Z,7.53
2022-09-28T17:41:20.937Z,7.60
2022-09-28T17:43:48.093Z,6.65
2022-09-28T17:46:53.774Z,5.90
2022-09-28T17:49:20.168Z,5.15
2022-09-28T17:51:47.042Z,4.38
2022-09-28T17:54:16.604Z,5.10
2022-09-28T17:56:42.987Z,4.60
2022-09-28T17:59:13.256Z,5.18
2022-09-28T18:01:40.147Z,4.40
2022-09-28T18:04:08.698Z,3.40
2022-09-28T18:06:36.907Z,4.05
2022-09-28T18:09:04.085Z,3.30
2022-09-28T18:11:31.589Z,4.15
2022-09-28T18:13:57.975Z,3.95
2022-09-28T18:16:24.754Z,3.90
2022-09-28T18:18:51.110Z,3.20
2022-09-28T18:21:17.448Z,3.17
2022-09-28T18:23:43.767Z,3.53
2022-09-28T18:26:11.951Z,2.80
2022-09-28T18:28:38.654Z,2.80
2022-09-28T18:31:09.689Z,3.60
2022-09-28T18:33:51.630Z,3.80
2022-09-28T18:36:17.978Z,4.68
2022-09-28T18:38:44.324Z,3.85
2022-09-28T18:41:15.363Z,2.78
2022-09-28T18:43:48.761Z,2.63
2022-09-28T18:46:15.499Z,2.40
2022-09-28T18:48:43.376Z,2.58
2022-09-28T18:51:13.523Z,2.67
2022-09-28T18:53:40.354Z,2.67
2022-09-28T18:56:14.533Z,2.50
2022-09-28T19:04:02.476Z,2.65
2022-09-28T19:06:29.650Z,2.50
2022-09-28T19:08:56.297Z,2.90
2022-09-28T19:11:23.495Z,2.92
2022-09-28T19:13:49.897Z,3.30
2022-09-28T19:16:21.305Z,4.80
2022-09-28T19:18:48.007Z,4.28
2022-09-28T19:21:15.059Z,5.03
2022-09-28T19:23:44.820Z,3.88
2022-09-28T19:26:20.917Z,4.20
2022-09-28T19:28:47.665Z,4.20
2022-09-28T19:31:14.097Z,4.40
2022-09-28T19:33:40.924Z,3.63
2022-09-28T19:36:12.602Z,3.92
2022-09-28T19:38:39.592Z,3.70
2022-09-28T19:41:10.059Z,3.60
2022-09-28T19:43:36.486Z,4.03
2022-09-28T19:46:05.196Z,3.92
2022-09-28T19:48:32.999Z,3.17
2022-09-28T19:51:01.809Z,3.20
2022-09-28T19:53:31.157Z,3.20
2022-09-28T19:55:59.158Z,3.08
2022-09-28T19:58:29.262Z,3.22
2022-09-28T20:00:55.706Z,3.10
2022-09-28T20:03:22.095Z,3.13
2022-09-28T20:05:49.281Z,3.20
2022-09-28T20:08:16.208Z,3.35
2022-09-28T20:10:52.295Z,3.17
2022-09-28T20:13:19.120Z,2.95
2022-09-28T20:18:15.648Z,2.58
2022-09-28T20:20:42.542Z,2.60
2022-09-28T20:23:09.507Z,2.60
2022-09-28T20:25:35.873Z,2.38
2022-09-28T20:28:02.206Z,2.35
2022-09-28T20:30:28.666Z,2.72
2022-09-28T20:32:54.970Z,2.80
2022-09-28T20:35:32.354Z,2.65
2022-09-28T20:38:07.613Z,2.50
2022-09-28T20:40:35.319Z,3.17
2022-09-28T20:43:01.784Z,3.08
2022-09-28T20:45:28.094Z,2.30
2022-09-28T20:47:54.398Z,3.15
2022-09-28T20:50:21.950Z,2.60
2022-09-28T20:52:48.408Z,2.50
2022-09-28T20:55:14.775Z,1.95
2022-09-28T20:57:41.114Z,2.45
2022-09-28T21:00:09.106Z,3.33
2022-09-28T21:02:35.468Z,2.10
2022-09-28T21:05:01.809Z,1.88
2022-09-28T21:07:28.115Z,2.08
2022-09-28T21:09:54.455Z,2.20
2022-09-28T21:12:20.832Z,2.00
2022-09-28T21:14:47.171Z,1.98
2022-09-28T21:17:13.591Z,1.75
2022-09-28T21:19:40.003Z,2.08
2022-09-28T21:22:06.758Z,2.10
2022-09-28T21:24:33.088Z,1.85
2022-09-28T21:26:59.486Z,2.10
2022-09-28T21:29:26.129Z,2.20
2022-09-28T21:31:52.450Z,2.20
2022-09-28T21:34:20.054Z,2.20
2022-09-28T21:36:47.696Z,2.50
2022-09-28T21:39:14.333Z,2.20
2022-09-28T21:41:40.843Z,1.88
2022-09-28T21:44:08.079Z,2.17
2022-09-28T21:46:35.708Z,2.60
2022-09-28T21:49:06.299Z,2.17
2022-09-28T21:51:33.183Z,2.33
2022-09-28T21:53:59.699Z,2.25
2022-09-28T21:56:26.871Z,2.70
2022-09-28T21:58:53.437Z,2.00
2022-09-28T22:01:22.215Z,2.20
2022-09-28T22:03:51.119Z,2.00
2022-09-28T22:06:19.520Z,2.08
2022-09-28T22:08:46.829Z,2.25
2022-09-28T22:11:15.926Z,2.42
2022-09-28T22:13:44.709Z,2.22
2022-09-28T22:16:12.594Z,2.50
2022-09-28T22:18:39.711Z,2.30
2022-09-28T22:21:12.453Z,2.35
2022-09-28T22:23:40.104Z,2.10
2022-09-28T22:26:09.671Z,2.40
2022-09-28T22:28:35.986Z,2.13
2022-09-28T22:31:02.559Z,2.20
2022-09-28T22:33:29.098Z,2.00
2022-09-28T22:35:55.658Z,2.60
2022-09-28T22:38:23.699Z,2.40
2022-09-28T22:40:55.462Z,2.65
2022-09-28T22:43:23.348Z,2.20
2022-09-28T22:45:50.103Z,2.30
2022-09-28T22:48:16.414Z,2.13
2022-09-28T22:50:50.320Z,1.92
2022-09-28T22:53:16.747Z,2.47
2022-09-28T22:55:43.141Z,1.98
2022-09-28T22:58:09.557Z,2.08
2022-09-28T23:00:35.958Z,1.95
2022-09-28T23:03:02.344Z,2.30
2022-09-28T23:05:28.814Z,2.10
2022-09-28T23:07:55.122Z,1.80
2022-09-28T23:10:21.635Z,2.40
2022-09-28T23:12:47.958Z,2.38
2022-09-28T23:15:14.327Z,2.50
2022-09-28T23:17:40.648Z,1.90
2022-09-28T23:20:07.389Z,2.17
2022-09-28T23:22:33.763Z,2.50
2022-09-28T23:25:00.078Z,2.60
2022-09-28T23:27:26.566Z,2.22
2022-09-28T23:29:54.198Z,2.47
2022-09-28T23:32:20.503Z,3.00
2022-09-28T23:34:46.828Z,2.20
2022-09-28T23:37:13.151Z,2.42
2022-09-28T23:39:39.456Z,2.67
2022-09-28T23:42:05.837Z,2.60
2022-09-28T23:44:32.605Z,2.85
2022-09-28T23:46:58.979Z,2.50
2022-09-28T23:49:25.349Z,2.30
2022-09-28T23:51:51.650Z,2.15
2022-09-28T23:54:18.093Z,2.13
2022-09-28T23:56:44.575Z,1.77
2022-09-28T23:59:10.942Z,2.10
